Latest Weather Observations for Territory Grape Farm

IDD60801

Issued at 11:31 pm CST Tuesday 12 December 2017 (issued every 30 minutes, with the page automatically refreshed every 10 minutes)

About weather observations | Map of weather stations | Latest weather observations for NT | Other Formats
Station Details ID: 015643 Name: TERRITORY GRAPE FARM Lat: -22.45 Lon: 133.64 Height: 565.6 m
Data from the previous 72 hours. | See also: Recent months at Territory Grape Farm
Date/Time
CST
Temp
°C
App
Temp
°C
Dew
Point
°C
Rel
Hum
%
Delta-T
°C
Wind Press
QNH
hPa
Press
MSL
hPa
Rain since
9am
mm
Dir  Spd
km/h
Gust
km/h
Spd
kts
Gust
kts
12/11:30pm 23.3 21.2 5.7 32 9.2 SSW 6 7 3 4 1010.5 1006.2 0.0
12/11:00pm 23.9 22.5 7.1 34 9.0 SW 4 7 2 4 1010.7 1006.4 0.0
12/10:30pm 23.7 22.9 6.5 33 9.1 CALM 0 0 0 0 1010.5 1006.2 0.0
12/10:00pm 25.2 24.3 5.9 29 10.2 CALM 0 0 0 0 1010.5 1006.2 0.0
12/09:30pm 25.6 24.5 5.2 27 10.7 CALM 0 0 0 0 1010.5 1006.2 0.0
12/09:00pm 27.4 26.2 4.5 23 12.0 CALM 0 0 0 0 1010.3 1006.0 0.0
12/08:30pm 28.2 26.5 3.8 21 12.7 NNW 2 2 1 1 1010.3 1006.0 0.0
12/08:00pm 30.2 27.4 -0.2 14 14.9 NW 4 6 2 3 1010.2 1005.9 0.0
12/07:30pm 32.3 28.9 -1.9 11 16.5 NW 6 6 3 3 1010.1 1005.8 0.0
12/07:00pm 36.8 33.5 -4.6 7 19.7 WNW 4 7 2 4 1009.9 1005.6 0.0
12/06:30pm 38.4 34.8 -3.4 7 20.5 W 6 9 3 5 1009.7 1005.4 0.0
12/06:00pm 38.8 35.0 -5.2 6 21.1 SW 6 9 3 5 1009.5 1005.2 0.0
12/05:30pm 39.1 35.7 -5.0 6 21.2 ESE 4 9 2 5 1009.4 1005.1 0.0
12/05:00pm 39.1 34.4 -5.0 6 21.2 ENE 11 22 6 12 1009.4 1005.1 0.0
12/04:30pm 39.3 35.0 -4.8 6 21.3 E 9 20 5 11 1009.5 1005.2 0.0
12/04:00pm 39.5 35.6 -4.7 6 21.4 W 7 19 4 10 1009.6 1005.3 0.0
12/03:30pm 39.5 35.6 -4.7 6 21.4 NNE 7 20 4 11 1009.9 1005.6 0.0
12/03:00pm 38.9 35.0 -5.1 6 21.1 S 7 17 4 9 1010.2 1005.9 0.0
12/02:30pm 39.2 35.3 -4.9 6 21.3 SW 7 19 4 10 1010.4 1006.1 0.0
12/02:00pm 38.9 34.6 -5.1 6 21.1 ENE 9 17 5 9 1010.9 1006.6 0.0
12/01:30pm 39.1 35.2 -5.0 6 21.2 E 7 19 4 10 1011.3 1007.0 0.0
12/01:00pm 38.3 34.5 -3.5 7 20.5 SSE 7 17 4 9 1011.6 1007.3 0.0
12/12:30pm 37.7 34.1 -3.9 7 20.2 ESE 6 13 3 7 1012.2 1008.0 0.0
12/12:00pm 38.1 32.6 -5.7 6 20.7 ENE 15 28 8 15 1012.8 1008.5 0.0
12/11:30am 37.9 32.7 -5.8 6 20.6 E 13 22 7 12 1013.1 1008.8 0.0
12/11:00am 37.2 31.1 -4.3 7 19.9 ENE 19 28 10 15 1013.4 1009.1 0.0
12/10:30am 36.9 30.4 -2.7 8 19.5 E 22 39 12 21 1013.7 1009.4 0.0
12/10:00am 36.2 29.8 -1.7 9 18.8 E 22 33 12 18 1013.9 1009.7 0.0
12/09:30am 35.4 28.5 -2.3 9 18.5 E 24 33 13 18 1014.4 1010.1 0.0
12/09:00am 32.6 26.9 -0.5 12 16.4 ESE 19 28 10 15 1014.7 1010.4 0.0
12/08:30am 28.4 24.7 0.2 16 13.7 ESE 9 15 5 8 1014.8 1010.5 0.0
12/08:00am 27.0 22.0 -0.9 16 13.2 ESE 15 20 8 11 1014.7 1010.4 0.0
12/07:30am 25.5 22.0 -1.3 17 12.4 SE 7 11 4 6 1014.7 1010.4 0.0
12/07:00am 24.3 21.0 -1.5 18 11.8 S 6 7 3 4 1014.5 1010.2 0.0
12/06:30am 24.1 20.1 -2.4 17 11.9 SE 9 13 5 7 1013.9 1009.7 0.0
12/06:00am 23.7 19.3 -2.8 17 11.8 SE 11 15 6 8 1013.6 1009.3 0.0
12/05:30am 22.5 18.1 -2.2 19 11.0 SE 11 15 6 8 1013.3 1009.0 0.0
12/05:00am 21.4 17.5 -1.8 21 10.3 SSE 9 11 5 6 1013.0 1008.7 0.0
12/04:30am 20.3 16.6 -0.3 25 9.4 SSE 9 9 5 5 1012.8 1008.5 0.0
12/04:00am 19.5 15.7 -0.5 26 9.0 SSE 9 11 5 6 1012.4 1008.2 0.0
12/03:30am 19.1 15.4 -0.3 27 8.7 SSE 9 11 5 6 1012.2 1008.0 0.0
12/03:00am 19.5 15.7 -0.5 26 9.0 SSE 9 11 5 6 1012.2 1008.0 0.0
12/02:30am 19.3 15.9 -0.7 26 8.9 S 7 9 4 5 1012.4 1008.2 0.0
12/02:00am 19.6 16.2 -0.4 26 9.0 S 7 9 4 5 1012.7 1008.4 0.0
12/01:30am 19.6 16.3 0.1 27 8.9 S 7 9 4 5 1012.9 1008.6 0.0
12/01:00am 19.6 16.4 0.6 28 8.7 S 7 9 4 5 1013.2 1008.9 0.0
12/12:30am 18.3 15.5 1.8 33 7.7 S 6 9 3 5 1013.6 1009.3 0.0
12/12:00am 18.7 16.1 1.2 31 8.1 SSW 4 4 2 2 1014.0 1009.8 0.0
 
Date/Time
CST
Temp
°C
App
Temp
°C
Dew
Point
°C
Rel
Hum
%
Delta-T
°C
Wind Press
QNH
hPa
Press
MSL
hPa
Rain since
9am
mm
Dir  Spd
km/h
Gust
km/h
Spd
kts
Gust
kts
11/11:30pm 21.6 18.2 -0.4 23 10.1 SSW 7 9 4 5 1014.2 1010.0 0.0
11/11:00pm 21.9 18.7 -0.8 22 10.3 S 6 9 3 5 1014.4 1010.1 0.0
11/10:30pm 24.0 20.4 -1.8 18 11.7 S 7 11 4 6 1014.5 1010.2 0.0
11/10:00pm 25.0 21.1 -1.7 17 12.3 S 9 13 5 7 1014.4 1010.1 0.0
11/09:30pm 23.5 20.5 0.6 22 10.8 SSE 6 9 3 5 1014.1 1009.9 0.0
11/09:00pm 25.2 21.8 -0.8 18 12.2 SSW 7 7 4 4 1013.9 1009.7 0.0
11/08:30pm 25.8 22.9 -1.1 17 12.6 S 4 6 2 3 1013.6 1009.3 0.0
11/08:00pm 27.8 24.6 -0.3 16 13.5 SSE 6 7 3 4 1013.5 1009.2 0.0
11/07:30pm 29.2 26.2 -2.0 13 14.7 SSE 4 6 2 3 1013.2 1008.9 0.0
11/07:00pm 32.9 29.6 -4.1 9 17.3 SSE 4 6 2 3 1012.9 1008.6 0.0
11/06:30pm 34.7 29.7 -8.1 6 19.0 SSE 11 15 6 8 1012.6 1008.3 0.0
11/06:00pm 34.0 29.9 -6.6 7 18.4 SSE 7 13 4 7 1012.3 1008.1 0.0
11/05:30pm 35.3 31.1 -7.7 6 19.3 SSW 7 11 4 6 1012.3 1008.1 0.0
11/05:00pm 35.5 31.1 -9.9 5 19.7 SSW 7 17 4 9 1012.2 1008.0 0.0
11/04:30pm 36.9 32.8 -6.5 6 20.1 S 7 24 4 13 1012.2 1008.0 0.0
11/04:00pm 35.6 29.3 -9.8 5 19.7 S 17 24 9 13 1012.4 1008.2 0.0
11/03:30pm 36.6 30.8 -9.1 5 20.3 S 15 30 8 16 1012.6 1008.3 0.0
11/03:00pm 36.1 32.0 -7.1 6 19.7 S 7 19 4 10 1013.1 1008.8 0.0
11/02:30pm 35.0 29.8 -5.9 7 18.8 ESE 13 24 7 13 1013.4 1009.1 0.0
11/02:00pm 35.8 29.7 -7.3 6 19.5 SSE 17 28 9 15 1013.7 1009.4 0.0
11/01:30pm 36.1 32.0 -7.1 6 19.7 E 7 17 4 9 1014.0 1009.8 0.0
11/01:00pm 35.7 30.8 -7.4 6 19.5 SSE 11 19 6 10 1014.7 1010.4 0.0
11/12:30pm 35.3 30.1 -5.7 7 19.0 S 13 20 7 11 1015.1 1010.8 0.0
11/12:00pm 34.8 30.0 -6.0 7 18.7 ESE 11 19 6 10 1015.7 1011.5 0.0
11/11:30am 34.2 29.4 -6.5 7 18.4 ENE 11 26 6 14 1016.4 1012.1 0.0
11/11:00am 33.8 28.9 -6.8 7 18.3 E 11 20 6 11 1016.9 1012.6 0.0
11/10:30am 33.6 27.4 -5.2 8 17.9 E 19 32 10 17 1017.1 1012.9 0.0
11/10:00am 33.3 26.3 -7.1 7 18.0 E 22 32 12 17 1017.5 1013.3 0.0
11/09:30am 32.4 25.3 -4.5 9 17.0 ESE 24 33 13 18 1017.7 1013.5 0.0
11/09:00am 31.7 23.9 -3.6 10 16.5 ESE 28 37 15 20 1017.7 1013.5 0.0
11/08:30am 30.2 22.3 -4.8 10 15.8 ESE 28 39 15 21 1017.7 1013.5 0.0
11/08:00am 28.3 21.6 -3.8 12 14.6 ESE 22 32 12 17 1017.8 1013.6 0.0
11/07:30am 26.4 20.4 -3.2 14 13.3 SE 19 28 10 15 1017.5 1013.3 0.0
11/07:00am 23.3 18.6 -1.6 19 11.3 SE 13 19 7 10 1017.4 1013.2 0.0
11/06:30am 18.4 14.6 -0.4 28 8.4 SSE 9 11 5 6 1017.4 1013.2 0.0
11/06:00am 17.6 13.4 -1.1 28 8.2 S 11 13 6 7 1016.9 1012.6 0.0
11/05:30am 16.4 12.5 -1.2 30 7.6 SSE 9 13 5 7 1016.3 1012.0 0.0
11/05:00am 16.9 13.1 -0.8 30 7.7 SSE 9 11 5 6 1015.8 1011.6 0.0
11/04:30am 16.6 12.8 -1.0 30 7.6 SSE 9 11 5 6 1015.9 1011.7 0.0
11/04:00am 17.6 13.7 -1.6 27 8.3 S 9 11 5 6 1015.9 1011.7 0.0
11/03:30am 17.6 14.1 -1.6 27 8.3 S 7 9 4 5 1015.8 1011.6 0.0
11/03:00am 18.3 14.4 -1.5 26 8.6 S 9 13 5 7 1015.6 1011.4 0.0
11/02:30am 18.1 14.2 -1.2 27 8.4 SSE 9 11 5 6 1015.6 1011.4 0.0
11/02:00am 18.9 15.4 -1.5 25 8.9 S 7 9 4 5 1015.7 1011.5 0.0
11/01:30am 19.2 15.3 -1.3 25 9.0 S 9 11 5 6 1015.8 1011.6 0.0
11/01:00am 19.4 15.9 -1.1 25 9.1 S 7 11 4 6 1016.0 1011.8 0.0
11/12:30am 19.6 16.1 -1.5 24 9.3 S 7 9 4 5 1016.4 1012.1 0.0
11/12:00am 20.0 17.0 -1.7 23 9.5 S 4 6 2 3 1016.7 1012.4 0.0
 
Date/Time
CST
Temp
°C
App
Temp
°C
Dew
Point
°C
Rel
Hum
%
Delta-T
°C
Wind Press
QNH
hPa
Press
MSL
hPa
Rain since
9am
mm
Dir  Spd
km/h
Gust
km/h
Spd
kts
Gust
kts
10/11:30pm 21.8 17.7 -2.8 19 10.8 S 9 11 5 6 1016.9 1012.6 0.0
10/11:00pm 23.0 18.0 -4.1 16 11.7 SSE 13 15 7 8 1017.0 1012.7 0.0
10/10:30pm 24.0 19.0 -4.2 15 12.2 SSE 13 15 7 8 1016.9 1012.6 0.0
10/10:00pm 25.3 20.7 -4.1 14 12.9 SSE 11 15 6 8 1016.8 1012.5 0.0
10/09:30pm 24.9 20.6 -4.4 14 12.8 SSE 9 13 5 7 1016.5 1012.2 0.0
10/09:00pm 25.2 20.7 -3.2 15 12.7 SSE 11 13 6 7 1015.9 1011.7 0.0
10/08:30pm 25.7 21.6 -2.8 15 12.9 S 9 13 5 7 1015.6 1011.4 0.0
10/08:00pm 27.9 23.3 -4.1 12 14.4 S 11 13 6 7 1015.2 1010.9 0.0
10/07:30pm 30.4 26.0 -6.0 9 16.2 S 9 13 5 7 1014.8 1010.5 0.0
10/07:00pm 33.2 29.2 -5.5 8 17.7 S 7 13 4 7 1014.5 1010.2 0.0
10/06:30pm 35.2 30.2 -7.7 6 19.2 SSW 11 17 6 9 1014.0 1009.8 0.0
10/06:00pm 36.0 30.7 -7.2 6 19.6 S 13 19 7 10 1013.9 1009.7 0.0
10/05:30pm 36.5 32.2 -4.8 7 19.6 S 9 15 5 8 1013.8 1009.6 0.0
10/05:00pm 36.6 31.6 -4.7 7 19.6 SE 13 19 7 10 1013.8 1009.6 0.0
10/04:30pm 36.5 31.1 -4.8 7 19.6 SSE 15 24 8 13 1013.9 1009.7 0.0
10/04:00pm 36.9 31.5 -4.5 7 19.8 SSW 15 24 8 13 1014.2 1010.0 0.0
10/03:30pm 37.2 32.4 -2.5 8 19.6 SSE 13 24 7 13 1014.2 1010.0 0.0
10/03:00pm 35.7 31.2 -3.6 8 18.9 S 11 17 6 9 1014.7 1010.4 0.0
10/02:30pm 35.8 31.1 -2.0 9 18.6 SSW 13 30 7 16 1015.1 1010.8 0.0
10/02:00pm 35.8 30.9 -3.5 8 18.9 S 13 24 7 13 1015.5 1011.3 0.0
10/01:30pm 35.0 29.3 -4.1 8 18.5 SSE 17 28 9 15 1016.3 1012.0 0.0
10/01:00pm 35.4 29.1 -3.8 8 18.7 SE 20 35 11 19 1016.8 1012.5 0.0
10/12:30pm 34.4 28.6 -4.6 8 18.2 SSE 17 32 9 17 1017.3 1013.1 0.0
10/12:00pm 33.9 28.1 -4.9 8 18.0 SSE 17 32 9 17 1017.8 1013.6 0.0
10/11:30am 33.9 29.0 -3.4 9 17.7 SSE 13 28 7 15 1018.3 1014.0 0.0
10/11:00am 32.9 27.3 -2.7 10 17.0 SE 17 28 9 15 1018.8 1014.6 0.0
10/10:30am 32.1 26.2 -2.0 11 16.4 ESE 19 30 10 16 1019.1 1014.9 0.0
10/10:00am 30.9 24.9 -3.0 11 15.9 ESE 19 30 10 16 1019.2 1015.0 0.0
10/09:30am 29.8 22.9 -2.6 12 15.1 SE 24 32 13 17 1019.3 1015.1 0.0
10/09:00am 29.3 22.9 -1.9 13 14.7 ESE 22 30 12 16 1019.3 1015.1 0.0
10/08:30am 27.9 20.6 -3.0 13 14.1 ESE 26 35 14 19 1019.2 1015.0 0.0
10/08:00am 26.8 20.0 -2.0 15 13.3 ESE 24 33 13 18 1019.1 1014.9 0.0
10/07:30am 24.2 19.2 -0.9 19 11.6 ESE 15 22 8 12 1019.1 1014.9 0.0
10/07:00am 22.9 18.7 -0.6 21 10.8 SE 11 17 6 9 1018.8 1014.6 0.0
10/06:30am 19.5 16.4 1.5 30 8.4 SE 7 9 4 5 1018.2 1013.9 0.0
10/06:00am 18.4 14.9 1.4 32 7.8 SSE 9 11 5 6 1017.9 1013.7 0.0
10/05:30am 17.9 14.3 0.6 31 7.8 SE 9 11 5 6 1017.5 1013.3 0.0
10/05:00am 18.8 14.9 1.3 31 8.1 SE 11 13 6 7 1017.3 1013.1 0.0
10/04:30am 19.1 15.6 1.1 30 8.3 SE 9 13 5 7 1017.1 1012.9 0.0
10/04:00am 20.1 16.2 1.0 28 8.9 SE 11 13 6 7 1016.8 1012.5 0.0
10/03:30am 21.8 17.0 0.4 24 10.0 SE 15 19 8 10 1016.6 1012.3 0.0
10/03:00am 22.1 17.5 1.7 26 9.8 ESE 15 19 8 10 1016.7 1012.4 0.0
10/02:30am 19.8 17.0 3.1 33 8.1 SE 7 7 4 4 1016.8 1012.5 0.0
10/02:00am 21.4 18.1 2.6 29 9.1 SSE 9 11 5 6 1016.8 1012.5 0.0
10/01:30am 22.3 18.8 1.3 25 10.0 SE 9 11 5 6 1016.9 1012.6 0.0
10/01:00am 23.9 19.7 1.5 23 10.8 ESE 13 17 7 9 1016.9 1012.6 0.0
10/12:30am 24.6 20.4 1.5 22 11.2 ESE 13 15 7 8 1017.1 1012.9 0.0
10/12:00am 24.9 21.1 1.7 22 11.3 SE 11 15 6 8 1017.3 1013.1 0.0

Other Formats:

Comma delimited format used in spreadsheet applications
http://www.bom.gov.au/fwo/IDD60801/IDD60801.94328.axf

JavaScript Object Notation format (JSON) in row-major order
http://www.bom.gov.au/fwo/IDD60801/IDD60801.94328.json